Ana Sayfa
METAR-TAF:

METAR-TAF

Havaalanları :

Dallas/Fort Worth Uluslararası Havalimanı

Dallas / Fort Worth, Teksas, Amerika Birleşik Devletleri

Enlem: 32-53-49N, Boylam: 097-01-19W, yükseklik: 183 m

Güncel hava durumu gözlemi

Rapor saat 14:53 UTC de 30 dakika önce yapıldı.
Rüzgar güneydan 10 kt
Sıcaklık 31°C
Nem 71%
Basınç 1014 hPa
Görüş mesafesi: 16.1 km
2000 ft yükseklikte parçalı bulutlu

METAR: KDFW 251453Z 18010KT 10SM SCT020 31/25 A2993 RMK AO2 SLP123 T03060250 50004

Saat: 10:23 (15:23 UTC)

Tahmin

Rapor saat 14:58 UTC de 25 dakika önce yapıldı.
Ayın 25'si saat 15 UTC'den ayın 26'si saat 18 UTC'ye kadar geçerli Tahmin
Rüzgar güneydan 12 kt
Görüş mesafesi: 10 km
2500 ft yükseklikte parçalı bulutlu
25000 ft yükseklikte parçalı bulutlu
Geçici
ayın 25'si saat 15 UTC'den ayın 25'si saat 16 UTC'ye kadar
1500 ft yükseklikte parçalı çok bulutlu

TAF: KDFW 251458Z 2515/2618 18012KT P6SM SCT025 SCT250 TEMPO 2515/2516 BKN015

4.000'den fazla havaalanı için hava durumu gözlemleri ve tahminleri (METAR ve TAF raporları).

Kullanılabilir istasyonlar harita üzerinde sarı ve kırmızı noktalarla gösterilir.

İstasyonun adını görmek için fareyi noktanın üzerinde gezdirin.

Sonrasında hava gözlem ve tahminlerini görmek için tıklayın.

Haritayı değiştirmek için: yaklaştırmak için siyah artı işaretli yeşil düğmeye ve uzaklaştırmak için de eksi işaretli düğmeye hızla tıklayın; bitişik haritalar için yeşil okları kullanın.


METAR-TAF: